sensor_id;sensor_type;location;lat;lon;timestamp;P1;durP1;ratioP1;P2;durP2;ratioP2
21663;SDS011;10993;52.510;13.456;2023-06-22T00:02:34;13.07;;;7.63;;
21663;SDS011;10993;52.510;13.456;2023-06-22T00:07:36;10.93;;;8.03;;
21663;SDS011;10993;52.510;13.456;2023-06-22T00:12:37;10.18;;;7.45;;
21663;SDS011;10993;52.510;13.456;2023-06-22T00:17:38;10.80;;;7.68;;
21663;SDS011;10993;52.510;13.456;2023-06-22T00:22:39;11.15;;;7.93;;
21663;SDS011;10993;52.510;13.456;2023-06-22T00:27:40;10.23;;;7.32;;
21663;SDS011;10993;52.510;13.456;2023-06-22T00:32:40;13.20;;;6.73;;
21663;SDS011;10993;52.510;13.456;2023-06-22T00:37:42;9.03;;;7.37;;
21663;SDS011;10993;52.510;13.456;2023-06-22T00:42:42;10.02;;;7.40;;
21663;SDS011;10993;52.510;13.456;2023-06-22T00:47:42;9.73;;;7.33;;
21663;SDS011;10993;52.510;13.456;2023-06-22T00:52:45;11.15;;;7.85;;
21663;SDS011;10993;52.510;13.456;2023-06-22T00:57:46;14.52;;;9.60;;
21663;SDS011;10993;52.510;13.456;2023-06-22T01:02:47;10.98;;;7.70;;
21663;SDS011;10993;52.510;13.456;2023-06-22T01:07:58;10.57;;;7.78;;
21663;SDS011;10993;52.510;13.456;2023-06-22T01:13:06;10.45;;;8.18;;
21663;SDS011;10993;52.510;13.456;2023-06-22T01:18:11;11.00;;;8.10;;
21663;SDS011;10993;52.510;13.456;2023-06-22T01:23:20;12.82;;;8.25;;
21663;SDS011;10993;52.510;13.456;2023-06-22T01:28:43;10.68;;;8.40;;
21663;SDS011;10993;52.510;13.456;2023-06-22T01:33:48;12.05;;;9.57;;
21663;SDS011;10993;52.510;13.456;2023-06-22T01:38:51;15.07;;;9.65;;
21663;SDS011;10993;52.510;13.456;2023-06-22T01:43:54;12.98;;;9.55;;
21663;SDS011;10993;52.510;13.456;2023-06-22T01:48:55;11.40;;;8.88;;
21663;SDS011;10993;52.510;13.456;2023-06-22T01:53:56;12.77;;;9.55;;
21663;SDS011;10993;52.510;13.456;2023-06-22T01:58:59;13.95;;;10.43;;
21663;SDS011;10993;52.510;13.456;2023-06-22T02:04:04;14.48;;;10.73;;
21663;SDS011;10993;52.510;13.456;2023-06-22T02:09:07;21.05;;;10.38;;
21663;SDS011;10993;52.510;13.456;2023-06-22T02:14:13;16.60;;;10.80;;
21663;SDS011;10993;52.510;13.456;2023-06-22T02:19:14;14.68;;;10.77;;
21663;SDS011;10993;52.510;13.456;2023-06-22T02:24:15;15.77;;;10.80;;
21663;SDS011;10993;52.510;13.456;2023-06-22T02:29:17;17.00;;;11.85;;
21663;SDS011;10993;52.510;13.456;2023-06-22T02:34:18;16.83;;;12.10;;
21663;SDS011;10993;52.510;13.456;2023-06-22T02:39:19;17.83;;;12.65;;
21663;SDS011;10993;52.510;13.456;2023-06-22T02:44:21;16.90;;;11.57;;
21663;SDS011;10993;52.510;13.456;2023-06-22T02:49:22;15.27;;;10.90;;
21663;SDS011;10993;52.510;13.456;2023-06-22T02:54:23;15.80;;;11.95;;
21663;SDS011;10993;52.510;13.456;2023-06-22T02:59:25;14.27;;;10.52;;
21663;SDS011;10993;52.510;13.456;2023-06-22T03:04:25;13.13;;;9.95;;
21663;SDS011;10993;52.510;13.456;2023-06-22T03:09:26;12.85;;;10.18;;
21663;SDS011;10993;52.510;13.456;2023-06-22T03:14:29;14.30;;;9.32;;
21663;SDS011;10993;52.510;13.456;2023-06-22T03:19:29;12.93;;;8.80;;
21663;SDS011;10993;52.510;13.456;2023-06-22T03:24:31;13.18;;;8.65;;
21663;SDS011;10993;52.510;13.456;2023-06-22T03:29:35;12.02;;;8.15;;
21663;SDS011;10993;52.510;13.456;2023-06-22T03:34:36;12.98;;;8.38;;
21663;SDS011;10993;52.510;13.456;2023-06-22T03:39:36;12.77;;;8.27;;
21663;SDS011;10993;52.510;13.456;2023-06-22T03:44:38;9.20;;;6.53;;
21663;SDS011;10993;52.510;13.456;2023-06-22T03:49:38;10.20;;;6.43;;
21663;SDS011;10993;52.510;13.456;2023-06-22T03:54:39;9.98;;;5.90;;
21663;SDS011;10993;52.510;13.456;2023-06-22T03:59:40;7.80;;;5.32;;
21663;SDS011;10993;52.510;13.456;2023-06-22T04:04:41;8.77;;;5.38;;
21663;SDS011;10993;52.510;13.456;2023-06-22T04:09:41;7.38;;;4.68;;
21663;SDS011;10993;52.510;13.456;2023-06-22T04:14:43;5.78;;;4.00;;
21663;SDS011;10993;52.510;13.456;2023-06-22T04:19:43;8.10;;;4.28;;
21663;SDS011;10993;52.510;13.456;2023-06-22T04:24:44;6.67;;;3.90;;
21663;SDS011;10993;52.510;13.456;2023-06-22T04:29:46;5.45;;;3.65;;
21663;SDS011;10993;52.510;13.456;2023-06-22T04:34:48;6.05;;;3.75;;
21663;SDS011;10993;52.510;13.456;2023-06-22T04:39:49;6.80;;;4.10;;
21663;SDS011;10993;52.510;13.456;2023-06-22T04:44:51;5.57;;;3.90;;
21663;SDS011;10993;52.510;13.456;2023-06-22T04:49:51;4.85;;;3.30;;
21663;SDS011;10993;52.510;13.456;2023-06-22T04:54:51;5.77;;;3.03;;
21663;SDS011;10993;52.510;13.456;2023-06-22T05:00:00;5.15;;;3.55;;
21663;SDS011;10993;52.510;13.456;2023-06-22T05:05:12;5.40;;;2.80;;
21663;SDS011;10993;52.510;13.456;2023-06-22T05:10:16;4.65;;;3.05;;
21663;SDS011;10993;52.510;13.456;2023-06-22T05:15:18;5.70;;;3.15;;
21663;SDS011;10993;52.510;13.456;2023-06-22T05:20:23;5.55;;;3.03;;
21663;SDS011;10993;52.510;13.456;2023-06-22T05:25:23;5.97;;;2.83;;
21663;SDS011;10993;52.510;13.456;2023-06-22T05:30:25;5.90;;;3.77;;
21663;SDS011;10993;52.510;13.456;2023-06-22T05:35:25;5.85;;;3.55;;
21663;SDS011;10993;52.510;13.456;2023-06-22T05:40:25;7.00;;;4.28;;
21663;SDS011;10993;52.510;13.456;2023-06-22T05:45:28;6.32;;;4.28;;
21663;SDS011;10993;52.510;13.456;2023-06-22T05:50:28;6.43;;;4.47;;
21663;SDS011;10993;52.510;13.456;2023-06-22T05:55:29;5.80;;;3.93;;
21663;SDS011;10993;52.510;13.456;2023-06-22T06:00:30;7.87;;;3.70;;
21663;SDS011;10993;52.510;13.456;2023-06-22T06:05:31;5.00;;;3.00;;
21663;SDS011;10993;52.510;13.456;2023-06-22T06:10:32;5.60;;;3.20;;
21663;SDS011;10993;52.510;13.456;2023-06-22T06:15:34;5.82;;;3.35;;
21663;SDS011;10993;52.510;13.456;2023-06-22T06:20:34;6.50;;;2.88;;
21663;SDS011;10993;52.510;13.456;2023-06-22T06:25:35;5.03;;;3.20;;
21663;SDS011;10993;52.510;13.456;2023-06-22T06:30:37;6.37;;;3.20;;
21663;SDS011;10993;52.510;13.456;2023-06-22T06:35:37;4.13;;;2.63;;
21663;SDS011;10993;52.510;13.456;2023-06-22T06:40:38;4.73;;;3.20;;
21663;SDS011;10993;52.510;13.456;2023-06-22T06:45:39;4.47;;;2.17;;
21663;SDS011;10993;52.510;13.456;2023-06-22T06:50:40;3.28;;;2.22;;
21663;SDS011;10993;52.510;13.456;2023-06-22T06:55:40;4.37;;;1.97;;
21663;SDS011;10993;52.510;13.456;2023-06-22T07:00:42;5.95;;;2.08;;
21663;SDS011;10993;52.510;13.456;2023-06-22T07:05:43;3.40;;;1.85;;
21663;SDS011;10993;52.510;13.456;2023-06-22T07:10:43;3.43;;;1.93;;
21663;SDS011;10993;52.510;13.456;2023-06-22T07:15:45;3.33;;;2.00;;
21663;SDS011;10993;52.510;13.456;2023-06-22T07:20:46;3.30;;;1.70;;
21663;SDS011;10993;52.510;13.456;2023-06-22T07:25:47;3.05;;;1.60;;
21663;SDS011;10993;52.510;13.456;2023-06-22T07:30:49;2.95;;;1.40;;
21663;SDS011;10993;52.510;13.456;2023-06-22T07:35:51;2.80;;;1.60;;
21663;SDS011;10993;52.510;13.456;2023-06-22T07:40:52;2.80;;;1.58;;
21663;SDS011;10993;52.510;13.456;2023-06-22T07:45:54;2.72;;;1.60;;
21663;SDS011;10993;52.510;13.456;2023-06-22T07:50:55;2.85;;;1.67;;
21663;SDS011;10993;52.510;13.456;2023-06-22T07:55:55;3.28;;;1.55;;
21663;SDS011;10993;52.510;13.456;2023-06-22T08:00:57;2.90;;;1.60;;
21663;SDS011;10993;52.510;13.456;2023-06-22T08:05:57;2.70;;;1.40;;
21663;SDS011;10993;52.510;13.456;2023-06-22T08:10:58;2.55;;;1.42;;
21663;SDS011;10993;52.510;13.456;2023-06-22T08:16:00;4.50;;;1.63;;
21663;SDS011;10993;52.510;13.456;2023-06-22T08:21:00;5.68;;;1.75;;
21663;SDS011;10993;52.510;13.456;2023-06-22T08:26:00;2.77;;;1.50;;
21663;SDS011;10993;52.510;13.456;2023-06-22T08:31:03;6.43;;;1.77;;
21663;SDS011;10993;52.510;13.456;2023-06-22T08:36:04;3.53;;;2.10;;
21663;SDS011;10993;52.510;13.456;2023-06-22T08:41:06;4.60;;;2.33;;
21663;SDS011;10993;52.510;13.456;2023-06-22T08:46:07;3.42;;;2.10;;
21663;SDS011;10993;52.510;13.456;2023-06-22T08:51:08;3.53;;;2.00;;
21663;SDS011;10993;52.510;13.456;2023-06-22T08:56:08;3.07;;;1.90;;
21663;SDS011;10993;52.510;13.456;2023-06-22T09:01:10;3.33;;;1.83;;
21663;SDS011;10993;52.510;13.456;2023-06-22T09:06:10;3.20;;;1.92;;
21663;SDS011;10993;52.510;13.456;2023-06-22T09:11:10;4.40;;;2.30;;
21663;SDS011;10993;52.510;13.456;2023-06-22T09:16:12;3.03;;;1.60;;
21663;SDS011;10993;52.510;13.456;2023-06-22T09:21:13;3.75;;;2.05;;
21663;SDS011;10993;52.510;13.456;2023-06-22T09:26:14;4.40;;;1.63;;
21663;SDS011;10993;52.510;13.456;2023-06-22T09:31:15;3.15;;;1.80;;
21663;SDS011;10993;52.510;13.456;2023-06-22T09:36:19;3.22;;;1.67;;
21663;SDS011;10993;52.510;13.456;2023-06-22T09:41:20;2.42;;;1.60;;
21663;SDS011;10993;52.510;13.456;2023-06-22T09:46:22;6.22;;;2.40;;
21663;SDS011;10993;52.510;13.456;2023-06-22T09:51:25;2.38;;;1.70;;
21663;SDS011;10993;52.510;13.456;2023-06-22T09:56:25;3.55;;;2.20;;
21663;SDS011;10993;52.510;13.456;2023-06-22T10:01:29;2.75;;;1.58;;
21663;SDS011;10993;52.510;13.456;2023-06-22T10:06:29;3.08;;;1.88;;
21663;SDS011;10993;52.510;13.456;2023-06-22T10:11:30;4.17;;;2.40;;
21663;SDS011;10993;52.510;13.456;2023-06-22T10:16:33;3.60;;;1.67;;
21663;SDS011;10993;52.510;13.456;2023-06-22T10:21:35;2.97;;;2.15;;
21663;SDS011;10993;52.510;13.456;2023-06-22T10:26:36;3.53;;;1.85;;
21663;SDS011;10993;52.510;13.456;2023-06-22T10:31:38;2.55;;;1.70;;
21663;SDS011;10993;52.510;13.456;2023-06-22T10:36:38;3.17;;;1.77;;
21663;SDS011;10993;52.510;13.456;2023-06-22T10:41:39;4.45;;;2.10;;
21663;SDS011;10993;52.510;13.456;2023-06-22T10:46:40;3.47;;;2.30;;
21663;SDS011;10993;52.510;13.456;2023-06-22T10:51:41;3.42;;;1.80;;
21663;SDS011;10993;52.510;13.456;2023-06-22T10:56:41;3.67;;;1.67;;
21663;SDS011;10993;52.510;13.456;2023-06-22T11:01:43;3.07;;;1.80;;
21663;SDS011;10993;52.510;13.456;2023-06-22T11:06:43;2.67;;;1.88;;
21663;SDS011;10993;52.510;13.456;2023-06-22T11:11:44;3.08;;;1.90;;
21663;SDS011;10993;52.510;13.456;2023-06-22T11:16:45;3.08;;;2.10;;
21663;SDS011;10993;52.510;13.456;2023-06-22T11:21:48;3.00;;;2.05;;
21663;SDS011;10993;52.510;13.456;2023-06-22T11:26:49;5.40;;;2.30;;
21663;SDS011;10993;52.510;13.456;2023-06-22T11:31:50;4.63;;;2.20;;
21663;SDS011;10993;52.510;13.456;2023-06-22T11:36:51;3.47;;;1.75;;
21663;SDS011;10993;52.510;13.456;2023-06-22T11:41:51;2.97;;;1.90;;
21663;SDS011;10993;52.510;13.456;2023-06-22T11:46:53;5.20;;;2.10;;
21663;SDS011;10993;52.510;13.456;2023-06-22T11:51:53;4.45;;;2.17;;
21663;SDS011;10993;52.510;13.456;2023-06-22T11:56:56;2.28;;;1.70;;
21663;SDS011;10993;52.510;13.456;2023-06-22T12:01:58;3.08;;;1.90;;
21663;SDS011;10993;52.510;13.456;2023-06-22T12:06:58;3.63;;;2.50;;
21663;SDS011;10993;52.510;13.456;2023-06-22T12:11:59;3.72;;;2.20;;
21663;SDS011;10993;52.510;13.456;2023-06-22T12:17:00;3.30;;;2.37;;
21663;SDS011;10993;52.510;13.456;2023-06-22T12:22:01;5.10;;;2.40;;
21663;SDS011;10993;52.510;13.456;2023-06-22T12:27:01;5.00;;;2.38;;
21663;SDS011;10993;52.510;13.456;2023-06-22T12:32:05;3.25;;;2.20;;
21663;SDS011;10993;52.510;13.456;2023-06-22T12:37:06;3.45;;;2.17;;
21663;SDS011;10993;52.510;13.456;2023-06-22T12:42:06;5.33;;;2.63;;
21663;SDS011;10993;52.510;13.456;2023-06-22T12:47:10;6.30;;;3.40;;
21663;SDS011;10993;52.510;13.456;2023-06-22T12:52:11;4.03;;;2.50;;
21663;SDS011;10993;52.510;13.456;2023-06-22T12:57:11;4.50;;;2.35;;
21663;SDS011;10993;52.510;13.456;2023-06-22T13:02:13;5.03;;;2.70;;
21663;SDS011;10993;52.510;13.456;2023-06-22T13:07:13;5.40;;;2.97;;
21663;SDS011;10993;52.510;13.456;2023-06-22T13:12:14;4.40;;;2.58;;
21663;SDS011;10993;52.510;13.456;2023-06-22T13:17:15;4.43;;;2.53;;
21663;SDS011;10993;52.510;13.456;2023-06-22T13:22:26;5.07;;;2.53;;
21663;SDS011;10993;52.510;13.456;2023-06-22T13:27:29;5.13;;;2.63;;
21663;SDS011;10993;52.510;13.456;2023-06-22T13:32:30;4.03;;;2.50;;
21663;SDS011;10993;52.510;13.456;2023-06-22T13:37:31;4.30;;;2.50;;
21663;SDS011;10993;52.510;13.456;2023-06-22T13:42:31;5.07;;;2.60;;
21663;SDS011;10993;52.510;13.456;2023-06-22T13:47:33;4.82;;;2.83;;
21663;SDS011;10993;52.510;13.456;2023-06-22T13:52:33;3.92;;;2.50;;
21663;SDS011;10993;52.510;13.456;2023-06-22T13:57:33;4.15;;;2.83;;
21663;SDS011;10993;52.510;13.456;2023-06-22T14:02:35;4.50;;;2.67;;
21663;SDS011;10993;52.510;13.456;2023-06-22T14:07:36;4.72;;;2.85;;
21663;SDS011;10993;52.510;13.456;2023-06-22T14:12:37;4.35;;;2.72;;
21663;SDS011;10993;52.510;13.456;2023-06-22T14:17:39;3.88;;;2.90;;
21663;SDS011;10993;52.510;13.456;2023-06-22T14:22:39;3.90;;;2.83;;
21663;SDS011;10993;52.510;13.456;2023-06-22T14:27:40;4.70;;;2.72;;
21663;SDS011;10993;52.510;13.456;2023-06-22T14:32:41;5.57;;;2.80;;
21663;SDS011;10993;52.510;13.456;2023-06-22T14:37:43;4.05;;;2.80;;
21663;SDS011;10993;52.510;13.456;2023-06-22T14:42:43;3.80;;;2.90;;
21663;SDS011;10993;52.510;13.456;2023-06-22T14:47:45;4.70;;;2.77;;
21663;SDS011;10993;52.510;13.456;2023-06-22T14:52:45;5.63;;;2.92;;
21663;SDS011;10993;52.510;13.456;2023-06-22T14:57:46;5.82;;;3.00;;
21663;SDS011;10993;52.510;13.456;2023-06-22T15:02:47;6.30;;;3.13;;
21663;SDS011;10993;52.510;13.456;2023-06-22T15:07:48;4.47;;;2.78;;
21663;SDS011;10993;52.510;13.456;2023-06-22T15:12:49;4.30;;;2.83;;
21663;SDS011;10993;52.510;13.456;2023-06-22T15:17:50;4.60;;;2.97;;
21663;SDS011;10993;52.510;13.456;2023-06-22T15:22:51;4.55;;;2.80;;
21663;SDS011;10993;52.510;13.456;2023-06-22T15:27:51;6.53;;;3.03;;
21663;SDS011;10993;52.510;13.456;2023-06-22T15:32:53;5.10;;;3.22;;
21663;SDS011;10993;52.510;13.456;2023-06-22T15:37:53;3.97;;;2.80;;
21663;SDS011;10993;52.510;13.456;2023-06-22T15:42:53;4.43;;;3.00;;
21663;SDS011;10993;52.510;13.456;2023-06-22T15:47:55;5.20;;;3.08;;
21663;SDS011;10993;52.510;13.456;2023-06-22T15:52:56;4.40;;;2.80;;
21663;SDS011;10993;52.510;13.456;2023-06-22T15:57:56;4.53;;;2.87;;
21663;SDS011;10993;52.510;13.456;2023-06-22T16:02:58;4.70;;;3.17;;
21663;SDS011;10993;52.510;13.456;2023-06-22T16:07:58;5.15;;;3.30;;
21663;SDS011;10993;52.510;13.456;2023-06-22T16:12:59;4.50;;;2.92;;
21663;SDS011;10993;52.510;13.456;2023-06-22T16:18:01;10.43;;;3.10;;
21663;SDS011;10993;52.510;13.456;2023-06-22T16:23:01;4.43;;;3.17;;
21663;SDS011;10993;52.510;13.456;2023-06-22T16:28:03;5.30;;;3.25;;
21663;SDS011;10993;52.510;13.456;2023-06-22T16:33:05;5.90;;;3.70;;
21663;SDS011;10993;52.510;13.456;2023-06-22T16:38:08;11.60;;;4.13;;
21663;SDS011;10993;52.510;13.456;2023-06-22T16:43:09;5.38;;;3.67;;
21663;SDS011;10993;52.510;13.456;2023-06-22T16:48:10;7.88;;;3.30;;
21663;SDS011;10993;52.510;13.456;2023-06-22T16:53:11;4.55;;;3.28;;
21663;SDS011;10993;52.510;13.456;2023-06-22T16:58:11;5.15;;;3.47;;
21663;SDS011;10993;52.510;13.456;2023-06-22T17:03:24;4.75;;;3.33;;
21663;SDS011;10993;52.510;13.456;2023-06-22T17:08:27;6.35;;;4.07;;
21663;SDS011;10993;52.510;13.456;2023-06-22T17:13:32;4.03;;;3.05;;
21663;SDS011;10993;52.510;13.456;2023-06-22T17:18:36;4.80;;;3.28;;
21663;SDS011;10993;52.510;13.456;2023-06-22T17:23:36;5.40;;;3.63;;
21663;SDS011;10993;52.510;13.456;2023-06-22T17:28:47;5.70;;;3.65;;
21663;SDS011;10993;52.510;13.456;2023-06-22T17:33:49;6.13;;;4.15;;
21663;SDS011;10993;52.510;13.456;2023-06-22T17:38:50;5.45;;;3.53;;
21663;SDS011;10993;52.510;13.456;2023-06-22T17:43:50;7.07;;;4.50;;
21663;SDS011;10993;52.510;13.456;2023-06-22T17:48:54;8.80;;;4.03;;
21663;SDS011;10993;52.510;13.456;2023-06-22T17:53:55;4.75;;;3.65;;
21663;SDS011;10993;52.510;13.456;2023-06-22T17:58:56;6.30;;;3.33;;
21663;SDS011;10993;52.510;13.456;2023-06-22T18:03:59;5.80;;;3.60;;
21663;SDS011;10993;52.510;13.456;2023-06-22T18:09:00;5.75;;;3.40;;
21663;SDS011;10993;52.510;13.456;2023-06-22T18:14:04;5.20;;;3.70;;
21663;SDS011;10993;52.510;13.456;2023-06-22T18:19:06;5.38;;;3.88;;
21663;SDS011;10993;52.510;13.456;2023-06-22T18:24:06;5.18;;;3.53;;
21663;SDS011;10993;52.510;13.456;2023-06-22T18:29:09;7.18;;;3.60;;
21663;SDS011;10993;52.510;13.456;2023-06-22T18:34:10;4.50;;;3.30;;
21663;SDS011;10993;52.510;13.456;2023-06-22T18:39:12;5.95;;;4.10;;
21663;SDS011;10993;52.510;13.456;2023-06-22T18:44:18;5.72;;;3.90;;
21663;SDS011;10993;52.510;13.456;2023-06-22T18:49:23;6.32;;;4.10;;
21663;SDS011;10993;52.510;13.456;2023-06-22T18:54:29;7.13;;;4.10;;
21663;SDS011;10993;52.510;13.456;2023-06-22T18:59:40;6.43;;;4.07;;
21663;SDS011;10993;52.510;13.456;2023-06-22T19:04:44;5.60;;;4.07;;
21663;SDS011;10993;52.510;13.456;2023-06-22T19:09:49;7.53;;;3.47;;
21663;SDS011;10993;52.510;13.456;2023-06-22T19:15:22;5.57;;;3.83;;
21663;SDS011;10993;52.510;13.456;2023-06-22T19:20:32;7.00;;;3.78;;
21663;SDS011;10993;52.510;13.456;2023-06-22T19:25:34;7.07;;;4.18;;
21663;SDS011;10993;52.510;13.456;2023-06-22T19:30:37;5.82;;;3.83;;
21663;SDS011;10993;52.510;13.456;2023-06-22T19:35:37;6.78;;;4.00;;
21663;SDS011;10993;52.510;13.456;2023-06-22T19:40:38;5.20;;;3.70;;
21663;SDS011;10993;52.510;13.456;2023-06-22T19:45:41;5.03;;;3.60;;
21663;SDS011;10993;52.510;13.456;2023-06-22T19:50:43;5.43;;;3.80;;
21663;SDS011;10993;52.510;13.456;2023-06-22T19:55:44;6.60;;;4.10;;
21663;SDS011;10993;52.510;13.456;2023-06-22T20:00:46;7.63;;;4.07;;
21663;SDS011;10993;52.510;13.456;2023-06-22T20:05:52;6.28;;;3.97;;
21663;SDS011;10993;52.510;13.456;2023-06-22T20:10:53;5.68;;;3.35;;
21663;SDS011;10993;52.510;13.456;2023-06-22T20:15:56;5.55;;;3.80;;
21663;SDS011;10993;52.510;13.456;2023-06-22T20:20:57;5.78;;;3.85;;
21663;SDS011;10993;52.510;13.456;2023-06-22T20:25:57;6.05;;;3.40;;
21663;SDS011;10993;52.510;13.456;2023-06-22T20:31:03;6.40;;;3.63;;
21663;SDS011;10993;52.510;13.456;2023-06-22T20:36:05;6.80;;;3.83;;
21663;SDS011;10993;52.510;13.456;2023-06-22T20:41:06;7.80;;;4.88;;
21663;SDS011;10993;52.510;13.456;2023-06-22T20:46:08;10.98;;;5.82;;
21663;SDS011;10993;52.510;13.456;2023-06-22T20:51:08;17.48;;;7.63;;
21663;SDS011;10993;52.510;13.456;2023-06-22T20:56:08;12.00;;;6.60;;
21663;SDS011;10993;52.510;13.456;2023-06-22T21:01:10;9.98;;;6.30;;
21663;SDS011;10993;52.510;13.456;2023-06-22T21:06:17;10.63;;;7.32;;
21663;SDS011;10993;52.510;13.456;2023-06-22T21:11:18;12.70;;;7.95;;
21663;SDS011;10993;52.510;13.456;2023-06-22T21:16:20;13.65;;;9.60;;
21663;SDS011;10993;52.510;13.456;2023-06-22T21:21:20;15.60;;;9.88;;
21663;SDS011;10993;52.510;13.456;2023-06-22T21:26:20;12.68;;;8.85;;
21663;SDS011;10993;52.510;13.456;2023-06-22T21:31:22;11.43;;;9.25;;
21663;SDS011;10993;52.510;13.456;2023-06-22T21:36:23;14.85;;;10.68;;
21663;SDS011;10993;52.510;13.456;2023-06-22T21:41:23;12.50;;;9.23;;
21663;SDS011;10993;52.510;13.456;2023-06-22T21:46:25;16.77;;;10.50;;
21663;SDS011;10993;52.510;13.456;2023-06-22T21:51:25;16.48;;;12.25;;
21663;SDS011;10993;52.510;13.456;2023-06-22T21:56:26;13.98;;;10.23;;
21663;SDS011;10993;52.510;13.456;2023-06-22T22:01:28;16.38;;;10.43;;
21663;SDS011;10993;52.510;13.456;2023-06-22T22:06:28;15.50;;;10.65;;
21663;SDS011;10993;52.510;13.456;2023-06-22T22:11:29;17.55;;;11.52;;
21663;SDS011;10993;52.510;13.456;2023-06-22T22:16:30;15.15;;;11.23;;
21663;SDS011;10993;52.510;13.456;2023-06-22T22:21:31;16.67;;;10.82;;
21663;SDS011;10993;52.510;13.456;2023-06-22T22:26:31;16.00;;;11.68;;
21663;SDS011;10993;52.510;13.456;2023-06-22T22:31:33;15.98;;;11.85;;
21663;SDS011;10993;52.510;13.456;2023-06-22T22:36:38;15.32;;;11.05;;
21663;SDS011;10993;52.510;13.456;2023-06-22T22:41:41;16.10;;;11.63;;
21663;SDS011;10993;52.510;13.456;2023-06-22T22:46:43;15.50;;;10.53;;
21663;SDS011;10993;52.510;13.456;2023-06-22T22:51:43;14.13;;;11.13;;
21663;SDS011;10993;52.510;13.456;2023-06-22T22:56:44;13.68;;;10.45;;
21663;SDS011;10993;52.510;13.456;2023-06-22T23:01:45;14.55;;;10.02;;
21663;SDS011;10993;52.510;13.456;2023-06-22T23:06:46;13.02;;;10.07;;
21663;SDS011;10993;52.510;13.456;2023-06-22T23:11:46;14.27;;;9.45;;
21663;SDS011;10993;52.510;13.456;2023-06-22T23:16:48;13.43;;;9.85;;
21663;SDS011;10993;52.510;13.456;2023-06-22T23:21:49;11.07;;;8.55;;
21663;SDS011;10993;52.510;13.456;2023-06-22T23:26:49;12.80;;;7.65;;
21663;SDS011;10993;52.510;13.456;2023-06-22T23:31:51;12.75;;;8.68;;
21663;SDS011;10993;52.510;13.456;2023-06-22T23:36:52;12.73;;;8.73;;
21663;SDS011;10993;52.510;13.456;2023-06-22T23:41:52;10.20;;;7.45;;
21663;SDS011;10993;52.510;13.456;2023-06-22T23:46:54;11.05;;;7.65;;
21663;SDS011;10993;52.510;13.456;2023-06-22T23:51:57;11.65;;;7.50;;
21663;SDS011;10993;52.510;13.456;2023-06-22T23:56:58;10.73;;;7.03;;
